Log in Register

Login to your account

Username *
Password *
Remember Me

Create an account

Fields marked with an asterisk (*) are required.
Name *
Username *
Password *
Verify password *
Email *
Verify email *

METAR/TAF de Chambéry

[source: ADDS]
METAR
LFLB 242000Z AUTO VRB03KT 9999 -RA OVC056 22/18 Q1011 =
TAF LFLB 241400Z 2415/2515 VRB03KT 9999 SCT055 BKN120 TEMPO 2415/2424 SHRA SCT060TCU PROB40 TEMPO 2415/2421 VRB15G25KT 4000 TSRA SCT050CB TEMPO 2511/2515 FEW060TCU
TAF
TAF LFLB 241400Z 2415/2515 VRB03KT 9999 SCT055 BKN120 TEMPO 2415/2424 SHRA SCT060TCU PROB40 TEMPO 2415/2421 VRB15G25KT 4000 TSRA SCT050CB TEMPO 2511/2515 FEW060TCU =
SR / SS: 04:11 / 19:14 UTC (Lever/Coucher du soleil le 2021-07-24)

 

Webcam de l'Aéroclub - Parking Lima et SW (réactualisation : 5min)

Cliquer ici pour une animation sur les 3 dernières heures / Cliquer sur l'image pour l'agrandir dans une nouvelle fenêtre

 

Webcam de l'Aéroclub - Manche à air et WA (réactualisation : 5min)

Cliquer ici pour une animation sur les 3 dernières heures / Cliquer sur l'image pour l'agrandir dans une nouvelle fenêtre

 

JSN Boot template designed by JoomlaShine.com